Time;durP1;ratioP1;P1;durP2;ratioP2;P2;SDS_P1;SDS_P2;PMS_P1;PMS_P2;Temp;Humidity;BMP_temperature;BMP_pressure;BME280_temperature;BME280_humidity;BME280_pressure;Samples;Min_cycle;Max_cycle;Signal;HPM_P1;HPM_P2
2022/12/27 00:01:28;;;;;;;9.98;1.77;;;2.90;99.90;;;;;;5098978;28;20039;-79
2022/12/27 00:03:54;;;;;;;12.15;1.90;;;3.00;99.90;;;;;;5116255;28;20076;-80
2022/12/27 00:06:21;;;;;;;11.98;1.58;;;2.90;99.90;;;;;;5134686;28;20031;-80
2022/12/27 00:08:47;;;;;;;;;;;2.80;99.90;;;;;;5117022;28;20051;-79
2022/12/27 00:11:15;;;;;;;24.02;2.88;;;2.80;99.90;;;;;;5098496;28;19915;-80
2022/12/27 00:13:41;;;;;;;14.98;3.22;;;2.90;99.90;;;;;;5133898;28;20115;-81
2022/12/27 00:16:13;;;;;;;14.68;3.00;;;3.10;99.90;;;;;;5134645;28;20039;-83
2022/12/27 00:18:39;;;;;;;19.40;2.85;;;3.00;99.90;;;;;;5133636;28;20043;-80
2022/12/27 00:21:07;;;;;;;10.15;1.95;;;3.00;99.90;;;;;;5134331;28;20126;-77
2022/12/27 00:23:37;;;;;;;;;;;3.00;99.90;;;;;;5116073;28;20080;-80
2022/12/27 00:26:06;;;;;;;15.23;2.30;;;3.00;99.90;;;;;;5115549;28;19919;-78
2022/12/27 00:28:34;;;;;;;12.18;2.05;;;2.90;99.90;;;;;;5098424;28;20043;-79
2022/12/27 00:31:00;;;;;;;14.73;3.72;;;2.90;99.90;;;;;;5134924;28;20357;-80
2022/12/27 00:33:27;;;;;;;13.25;3.60;;;2.90;99.90;;;;;;5137094;28;20137;-81
2022/12/27 00:35:54;;;;;;;22.20;3.80;;;2.60;99.90;;;;;;5135144;28;20086;-79
2022/12/27 00:38:20;;;;;;;17.23;3.67;;;2.80;99.90;;;;;;5098470;28;20047;-76
2022/12/27 00:40:47;;;;;;;22.77;3.50;;;2.70;99.90;;;;;;5115338;28;20047;-83
2022/12/27 00:43:12;;;;;;;21.43;3.97;;;2.80;99.90;;;;;;5114694;28;20108;-77
2022/12/27 00:45:38;;;;;;;18.85;3.10;;;2.80;99.90;;;;;;5115390;28;20042;-77
2022/12/27 00:48:04;;;;;;;16.65;2.90;;;2.70;99.90;;;;;;5133226;28;20043;-76
2022/12/27 00:50:30;;;;;;;12.93;3.42;;;2.70;99.90;;;;;;5115245;28;20421;-78
2022/12/27 00:52:56;;;;;;;15.40;3.08;;;2.60;99.90;;;;;;5098128;28;20080;-78
2022/12/27 00:55:21;;;;;;;19.88;2.97;;;2.70;99.90;;;;;;5134823;27;20043;-80
2022/12/27 00:57:47;;;;;;;19.95;3.33;;;2.60;99.90;;;;;;5118489;27;20038;-78
2022/12/27 01:00:13;;;;;;;15.63;3.15;;;2.70;99.90;;;;;;5118750;27;20058;-80
2022/12/27 01:02:39;;;;;;;19.77;3.35;;;2.60;99.90;;;;;;5100909;27;20491;-76
2022/12/27 01:05:06;;;;;;;19.25;3.15;;;2.70;99.90;;;;;;5101289;27;20035;-77
2022/12/27 01:07:31;;;;;;;16.00;3.08;;;2.60;99.90;;;;;;5119326;27;20130;-81
2022/12/27 01:10:00;;;;;;;20.35;3.10;;;2.70;99.90;;;;;;5136422;27;20466;-78
2022/12/27 01:12:26;;;;;;;15.77;2.80;;;2.80;99.90;;;;;;5118501;27;20043;-80
2022/12/27 01:14:52;;;;;;;13.95;3.35;;;2.90;99.90;;;;;;5136803;27;20061;-82
2022/12/27 01:17:17;;;;;;;17.02;2.53;;;2.70;99.90;;;;;;5136715;27;20134;-77
2022/12/27 01:19:43;;;;;;;24.48;2.65;;;2.80;99.90;;;;;;5101510;27;20042;-81
2022/12/27 01:22:09;;;;;;;18.92;2.75;;;2.70;99.90;;;;;;5136725;27;20122;-80
2022/12/27 01:24:34;;;;;;;17.98;3.15;;;2.70;99.90;;;;;;5084288;27;20049;-79
2022/12/27 01:27:00;;;;;;;19.63;3.45;;;2.60;99.90;;;;;;5137126;27;20046;-81
2022/12/27 01:29:26;;;;;;;24.23;2.78;;;2.70;99.90;;;;;;5136932;27;20142;-78
2022/12/27 01:31:51;;;;;;;21.83;3.80;;;2.60;99.90;;;;;;5118472;27;20498;-78
2022/12/27 01:34:18;;;;;;;16.60;2.90;;;2.80;99.90;;;;;;5136465;27;20074;-80
2022/12/27 01:36:44;;;;;;;23.58;3.83;;;2.80;99.90;;;;;;5101542;27;20047;-79
2022/12/27 01:39:11;;;;;;;15.63;3.83;;;2.90;99.90;;;;;;5118645;27;20359;-78
2022/12/27 01:44:38;;;;;;;24.27;4.20;;;2.80;99.90;;;;;;5136443;27;20142;-78
2022/12/27 01:47:32;;;;;;;17.05;3.97;;;2.70;99.90;;;;;;5136406;27;20113;-82
2022/12/27 01:50:15;;;;;;;35.00;5.28;;;2.80;99.90;;;;;;5136065;27;20053;-77
2022/12/27 01:53:17;;;;;;;21.10;4.20;;;2.90;99.90;;;;;;5136049;27;20043;-79
2022/12/27 01:55:45;;;;;;;20.05;3.95;;;2.90;99.90;;;;;;5118294;27;20042;-78
2022/12/27 01:58:20;;;;;;;27.52;4.50;;;2.90;99.90;;;;;;5117648;27;20051;-78
2022/12/27 02:00:48;;;;;;;17.88;3.20;;;2.90;99.90;;;;;;5136629;27;20047;-83
2022/12/27 02:03:21;;;;;;;24.27;4.30;;;3.10;99.90;;;;;;5135855;27;20163;-81
2022/12/27 02:05:47;;;;;;;19.35;3.40;;;2.90;99.90;;;;;;5136288;27;20363;-79
2022/12/27 02:08:37;;;;;;;16.88;3.78;;;2.90;99.90;;;;;;5116927;27;20043;-79
2022/12/27 02:11:07;;;;;;;15.90;3.40;;;2.90;99.90;;;;;;5117324;27;20099;-79
2022/12/27 02:13:36;;;;;;;16.75;4.35;;;2.90;99.90;;;;;;5135952;27;20107;-81
2022/12/27 02:16:14;;;;;;;14.48;3.33;;;3.00;99.90;;;;;;5100437;27;20051;-81
2022/12/27 02:18:40;;;;;;;20.10;3.83;;;3.00;99.90;;;;;;5135819;27;20039;-79
2022/12/27 02:21:18;;;;;;;19.38;4.05;;;3.10;99.90;;;;;;5135046;27;20135;-77
2022/12/27 02:24:34;;;;;;;16.63;3.97;;;3.10;99.90;;;;;;5117092;27;20487;-79
2022/12/27 02:27:30;;;;;;;27.23;4.57;;;3.10;99.90;;;;;;5038584;28;20055;-80
2022/12/27 02:30:03;;;;;;;20.77;4.20;;;3.10;99.90;;;;;;5055725;28;20139;-77
2022/12/27 02:32:42;;;;;;;26.08;4.40;;;3.10;99.90;;;;;;5099869;27;20307;-81
2022/12/27 02:35:13;;;;;;;21.02;4.05;;;3.00;99.90;;;;;;5135312;27;20058;-81
2022/12/27 02:37:47;;;;;;;23.20;3.72;;;3.00;99.90;;;;;;5134717;27;20039;-82
2022/12/27 02:55:14;;;;;;;19.02;2.83;;;3.00;99.90;;;;;;5116332;27;20122;-77
2022/12/27 02:58:14;;;;;;;19.77;3.03;;;3.00;99.90;;;;;;5116587;27;20070;-80
2022/12/27 03:04:32;;;;;;;22.10;2.72;;;3.10;99.90;;;;;;5103314;27;20050;-81
2022/12/27 03:07:33;;;;;;;15.15;2.50;;;3.20;99.90;;;;;;5135347;27;20478;-82
2022/12/27 03:16:00;;;;;;;22.35;3.13;;;3.50;99.90;;;;;;5116107;27;20047;-83
2022/12/27 03:18:31;;;;;;;20.70;3.25;;;3.40;99.90;;;;;;5134515;27;20387;-82
2022/12/27 03:26:33;;;;;;;17.33;2.17;;;3.40;99.90;;;;;;5134675;27;20051;-81
2022/12/27 03:34:40;;;;;;;19.92;2.47;;;3.30;99.90;;;;;;5134083;27;20043;-78
2022/12/27 03:40:04;;;;;;;19.35;2.45;;;3.40;99.90;;;;;;5134655;27;20410;-78
2022/12/27 03:46:32;;;;;;;22.85;3.47;;;3.40;99.90;;;;;;5134901;28;20156;-80
2022/12/27 03:48:10;;;;;;;17.58;3.92;;;3.60;99.90;;;;;;5115906;28;20058;-80
2022/12/27 03:50:53;;;;;;;13.88;2.72;;;3.70;99.90;;;;;;5116383;28;20077;-80
2022/12/27 03:53:26;;;;;;;27.48;4.05;;;3.80;99.90;;;;;;5115790;28;20057;-83
2022/12/27 03:55:52;;;;;;;22.38;2.95;;;3.80;99.90;;;;;;5116376;28;20040;-78
2022/12/27 03:58:17;;;;;;;20.85;3.40;;;3.90;99.90;;;;;;5134003;28;20047;-78
2022/12/27 04:00:43;;;;;;;25.55;3.47;;;3.70;99.90;;;;;;5115499;28;20039;-80
2022/12/27 04:03:09;;;;;;;14.18;2.30;;;3.90;99.90;;;;;;5133772;28;20043;-80
2022/12/27 04:05:34;;;;;;;13.05;2.45;;;4.10;99.90;;;;;;5099151;28;20054;-78
2022/12/27 04:35:23;;;;;;;18.80;3.38;;;4.00;99.90;;;;;;5119668;27;20059;-80
2022/12/27 04:37:49;;;;;;;16.60;3.47;;;4.00;99.90;;;;;;5138278;27;20475;-81
2022/12/27 04:56:42;;;;;;;20.13;2.83;;;3.80;99.90;;;;;;5137070;27;20047;-82
2022/12/27 05:02:03;;;;;;;20.10;2.78;;;3.60;99.90;;;;;;5137412;27;20051;-78
2022/12/27 05:04:31;;;;;;;22.13;2.90;;;3.70;99.90;;;;;;5124629;27;20107;-81
2022/12/27 05:13:58;;;;;;;22.70;2.67;;;3.60;99.90;;;;;;5140525;27;20090;-79
2022/12/27 05:15:12;;;;;;;20.45;3.08;;;3.40;99.90;;;;;;5136885;27;20043;-82
2022/12/27 05:17:38;;;;;;;16.80;2.35;;;3.40;99.90;;;;;;5118031;27;20047;-84
2022/12/27 05:20:04;;;;;;;20.65;2.58;;;3.50;99.90;;;;;;5118035;27;20047;-78
2022/12/27 05:27:59;;;;;;;17.88;2.80;;;3.50;99.90;;;;;;5118566;27;20047;-78
2022/12/27 05:30:25;;;;;;;22.10;3.30;;;3.50;99.90;;;;;;5136276;27;20051;-79
2022/12/27 05:32:54;;;;;;;26.42;3.00;;;3.60;99.90;;;;;;5136181;27;20039;-81
2022/12/27 05:35:19;;;;;;;24.13;3.63;;;3.60;99.90;;;;;;5136027;27;20071;-82
2022/12/27 05:37:45;;;;;;;21.73;3.97;;;3.70;99.90;;;;;;5118617;27;20043;-81
2022/12/27 05:40:11;;;;;;;13.40;2.35;;;3.80;99.90;;;;;;5118335;27;20467;-86
2022/12/27 05:42:37;;;;;;;17.95;3.10;;;3.80;99.90;;;;;;5135688;27;20067;-78
2022/12/27 05:45:03;;;;;;;29.55;3.88;;;3.90;99.90;;;;;;5136088;27;20047;-80
2022/12/27 05:47:29;;;;;;;16.65;3.00;;;4.00;99.90;;;;;;5117802;27;20046;-81
2022/12/27 05:49:55;;;;;;;20.02;3.40;;;4.00;99.90;;;;;;5117692;27;20476;-80
2022/12/27 05:52:20;;;;;;;24.42;3.58;;;4.00;99.90;;;;;;5136105;27;20073;-80
2022/12/27 05:54:46;;;;;;;18.23;3.20;;;4.00;99.90;;;;;;5117449;27;20039;-79
2022/12/27 05:57:12;;;;;;;19.75;3.80;;;4.00;99.90;;;;;;5117890;27;20135;-81
2022/12/27 05:59:37;;;;;;;30.15;4.75;;;4.10;99.90;;;;;;5116971;27;20078;-80
2022/12/27 06:02:03;;;;;;;22.42;4.35;;;4.00;99.90;;;;;;5117038;27;20035;-80
2022/12/27 06:04:29;;;;;;;22.23;4.80;;;4.00;99.90;;;;;;5117065;27;20398;-77
2022/12/27 06:06:55;;;;;;;25.33;4.93;;;4.00;99.90;;;;;;5136024;27;20043;-79
2022/12/27 06:09:20;;;;;;;28.73;4.60;;;4.00;99.90;;;;;;5135377;27;20172;-80
2022/12/27 06:11:46;;;;;;;29.20;5.05;;;4.00;99.90;;;;;;5083029;27;20344;-82
2022/12/27 06:14:12;;;;;;;20.45;4.90;;;4.00;99.90;;;;;;5117266;27;20039;-78
2022/12/27 06:16:38;;;;;;;27.42;4.60;;;3.90;99.90;;;;;;5135746;27;20047;-81
2022/12/27 06:19:03;;;;;;;17.92;4.60;;;4.10;99.90;;;;;;5135220;27;20054;-82
2022/12/27 06:21:29;;;;;;;17.85;4.45;;;3.80;99.90;;;;;;5135068;27;20141;-79
2022/12/27 06:23:55;;;;;;;30.90;4.75;;;3.70;99.90;;;;;;5116811;27;20481;-79
2022/12/27 06:26:26;;;;;;;23.35;4.72;;;3.70;99.90;;;;;;5134910;27;20043;-81
2022/12/27 06:28:53;;;;;;;23.05;4.88;;;3.70;99.90;;;;;;5135391;27;20179;-81
2022/12/27 06:31:19;;;;;;;;;;;3.70;99.90;;;;;;5117888;27;20415;-80
2022/12/27 06:33:46;;;;;;;25.25;5.55;;;3.70;99.90;;;;;;5136322;27;19920;-82
2022/12/27 06:36:14;;;;;;;30.13;5.30;;;3.70;99.90;;;;;;5135849;27;20057;-81
2022/12/27 06:38:40;;;;;;;25.23;5.78;;;3.70;99.90;;;;;;5135777;27;20051;-81
2022/12/27 06:41:09;;;;;;;25.33;5.38;;;3.80;99.90;;;;;;5135478;27;20203;-77
2022/12/27 06:43:35;;;;;;;23.83;4.20;;;3.70;99.90;;;;;;5116952;27;20383;-81
2022/12/27 06:46:04;;;;;;;20.65;4.47;;;3.80;99.90;;;;;;5099774;27;20062;-81
2022/12/27 06:48:29;;;;;;;21.77;4.57;;;3.70;99.90;;;;;;5099658;27;20130;-82
2022/12/27 06:50:55;;;;;;;21.80;4.22;;;3.80;99.90;;;;;;5116777;27;20078;-80
2022/12/27 06:53:21;;;;;;;31.25;6.53;;;3.70;99.90;;;;;;5116258;27;20519;-80
2022/12/27 06:55:47;;;;;;;18.95;4.65;;;3.80;99.90;;;;;;5116114;27;20129;-80
2022/12/27 06:58:13;;;;;;;31.65;5.22;;;3.80;99.90;;;;;;5134881;27;20164;-80
2022/12/27 07:01:12;;;;;;;25.23;5.10;;;3.70;99.90;;;;;;5117627;27;20226;-83
2022/12/27 07:03:55;;;;;;;28.85;4.68;;;3.70;99.90;;;;;;5077359;27;20096;-81
2022/12/27 07:06:23;;;;;;;24.05;4.45;;;3.70;99.90;;;;;;5134484;27;20069;-81
2022/12/27 07:08:50;;;;;;;24.55;4.93;;;3.50;99.90;;;;;;5134651;27;20054;-80
2022/12/27 07:11:17;;;;;;;26.00;5.28;;;3.50;99.90;;;;;;5135277;27;20043;-82
2022/12/27 07:13:47;;;;;;;35.08;5.10;;;3.40;99.90;;;;;;5134756;27;20455;-82
2022/12/27 07:16:15;;;;;;;24.75;5.05;;;3.40;99.90;;;;;;5135969;27;20057;-81
2022/12/27 07:18:42;;;;;;;19.40;4.43;;;3.30;99.90;;;;;;5144254;27;20051;-79
2022/12/27 07:21:11;;;;;;;23.10;4.55;;;3.40;99.90;;;;;;5143796;27;20100;-80
2022/12/27 07:23:37;;;;;;;31.45;5.20;;;3.40;99.90;;;;;;5120178;27;20100;-81
2022/12/27 07:26:05;;;;;;;20.00;5.57;;;3.50;99.90;;;;;;5117069;27;20114;-78
2022/12/27 07:28:33;;;;;;;17.25;4.10;;;3.50;99.90;;;;;;5098603;28;20451;-78
2022/12/27 07:30:59;;;;;;;29.42;4.78;;;3.50;99.90;;;;;;5115396;27;20050;-78
2022/12/27 07:33:25;;;;;;;34.08;4.55;;;3.50;99.90;;;;;;5098742;27;20035;-78
2022/12/27 07:35:58;;;;;;;32.53;4.55;;;3.50;99.90;;;;;;5134333;27;20072;-80
2022/12/27 07:38:24;;;;;;;24.05;3.95;;;3.50;99.90;;;;;;5134608;27;20122;-82
2022/12/27 07:40:50;;;;;;;23.45;4.20;;;3.40;99.90;;;;;;5116377;27;20445;-77
2022/12/27 07:43:15;;;;;;;27.42;5.32;;;3.40;99.90;;;;;;5098056;28;20062;-77
2022/12/27 07:45:41;;;;;;;24.77;4.20;;;3.50;99.90;;;;;;5133583;28;20505;-83
2022/12/27 07:48:07;;;;;;;29.08;4.75;;;3.50;99.90;;;;;;5133610;28;20376;-80
2022/12/27 07:50:32;;;;;;;30.00;4.25;;;3.60;99.90;;;;;;5133645;28;20035;-80
2022/12/27 07:52:58;;;;;;;27.08;4.82;;;3.60;99.90;;;;;;5133522;28;20050;-82
2022/12/27 07:55:24;;;;;;;20.63;4.00;;;3.60;99.90;;;;;;5115258;28;20126;-82
2022/12/27 07:57:49;;;;;;;15.25;3.60;;;3.60;99.90;;;;;;5115283;28;20043;-77
2022/12/27 08:00:15;;;;;;;23.42;3.83;;;3.50;99.90;;;;;;5115775;28;20039;-78
2022/12/27 08:02:42;;;;;;;27.23;4.95;;;3.60;99.90;;;;;;5115098;28;20130;-78
2022/12/27 08:05:08;;;;;;;20.43;4.30;;;3.50;99.90;;;;;;5117606;27;20119;-79
2022/12/27 08:07:35;;;;;;;28.10;5.78;;;3.50;99.90;;;;;;5119290;27;20287;-79
2022/12/27 08:10:01;;;;;;;21.08;3.97;;;3.50;99.90;;;;;;5119440;27;20035;-80
2022/12/27 08:12:26;;;;;;;34.65;5.55;;;3.40;99.90;;;;;;5137463;27;20466;-80
2022/12/27 08:14:52;;;;;;;29.25;4.68;;;3.40;99.90;;;;;;5137441;27;20047;-77
2022/12/27 08:17:24;;;;;;;19.58;4.85;;;3.30;99.90;;;;;;5118577;27;20111;-78
2022/12/27 08:19:51;;;;;;;28.33;5.78;;;3.30;99.90;;;;;;5118950;27;20074;-78
2022/12/27 08:22:16;;;;;;;27.63;4.75;;;3.30;99.90;;;;;;5137657;27;20171;-77
2022/12/27 08:24:42;;;;;;;28.20;5.65;;;3.30;99.90;;;;;;5136969;27;20467;-80
2022/12/27 08:27:09;;;;;;;25.00;5.00;;;3.20;99.90;;;;;;5137347;27;20487;-79
2022/12/27 08:29:35;;;;;;;19.33;4.90;;;3.30;99.90;;;;;;5118762;27;20047;-79
2022/12/27 08:32:01;;;;;;;22.25;5.45;;;3.30;99.90;;;;;;5137474;27;20296;-81
2022/12/27 08:34:27;;;;;;;26.50;5.05;;;3.60;99.90;;;;;;5137683;27;20425;-83
2022/12/27 08:36:52;;;;;;;25.13;5.47;;;3.40;99.90;;;;;;5109600;27;20062;-84
2022/12/27 08:39:19;;;;;;;27.77;7.25;;;3.50;99.90;;;;;;5143628;27;20043;-82
2022/12/27 08:41:45;;;;;;;23.60;5.05;;;3.60;99.90;;;;;;5140550;27;20042;-82
2022/12/27 08:44:11;;;;;;;27.58;5.30;;;3.60;99.90;;;;;;5121329;27;20149;-86
2022/12/27 08:46:37;;;;;;;30.33;5.40;;;3.70;99.90;;;;;;5139224;27;20055;-83
2022/12/27 08:49:03;;;;;;;26.30;5.53;;;3.80;99.90;;;;;;5138120;27;20316;-82
2022/12/27 08:51:29;;;;;;;21.90;6.80;;;3.80;99.90;;;;;;5138164;27;20164;-81
2022/12/27 08:53:55;;;;;;;25.27;4.88;;;3.90;99.90;;;;;;5118804;27;20126;-80
2022/12/27 08:56:21;;;;;;;47.30;10.13;;;3.90;99.90;;;;;;5122180;27;20042;-83
2022/12/27 08:58:49;;;;;;;24.08;5.20;;;4.00;99.90;;;;;;5144728;27;20047;-85
2022/12/27 09:01:16;;;;;;;28.95;6.05;;;4.10;99.90;;;;;;5126662;27;20043;-85
2022/12/27 09:03:42;;;;;;;26.53;5.70;;;4.00;99.90;;;;;;5125065;27;20378;-85
2022/12/27 09:06:15;;;;;;;27.85;5.65;;;4.00;99.90;;;;;;5142682;27;20043;-84
2022/12/27 09:08:45;;;;;;;21.40;5.95;;;3.90;99.90;;;;;;5123009;27;20108;-78
2022/12/27 09:11:15;;;;;;;23.02;5.03;;;3.90;99.90;;;;;;5137091;27;20136;-82
2022/12/27 09:13:41;;;;;;;22.92;5.82;;;3.80;99.90;;;;;;5100952;27;20103;-79
2022/12/27 09:16:13;;;;;;;22.70;5.70;;;3.90;99.90;;;;;;5100219;27;20050;-78
2022/12/27 09:18:40;;;;;;;28.30;5.63;;;3.70;99.90;;;;;;5136292;27;20221;-82
2022/12/27 09:21:08;;;;;;;38.22;6.78;;;3.80;99.90;;;;;;5118373;27;20562;-79
2022/12/27 09:23:34;;;;;;;30.10;5.85;;;3.80;99.90;;;;;;5118176;27;20066;-78
2022/12/27 09:26:15;;;;;;;27.33;5.30;;;3.80;99.90;;;;;;5118684;27;20051;-78
2022/12/27 09:28:41;;;;;;;27.45;5.97;;;3.80;99.90;;;;;;5118058;27;20059;-81
2022/12/27 09:31:09;;;;;;;34.10;7.00;;;3.90;99.90;;;;;;5118351;27;20047;-78
2022/12/27 09:33:36;;;;;;;35.55;6.68;;;3.90;99.90;;;;;;5137418;27;20111;-81
2022/12/27 09:36:04;;;;;;;26.83;5.60;;;4.00;99.90;;;;;;5139856;27;20082;-80
2022/12/27 09:38:30;;;;;;;26.13;6.57;;;4.00;99.90;;;;;;5118842;27;20049;-81
2022/12/27 09:41:00;;;;;;;26.63;6.30;;;4.10;99.90;;;;;;5117429;27;20039;-81
2022/12/27 09:43:56;;;;;;;36.90;7.85;;;4.20;99.90;;;;;;5117011;27;20094;-78
2022/12/27 09:46:24;;;;;;;;;;;4.20;99.90;;;;;;5118055;27;20103;-78
2022/12/27 09:48:53;;;;;;;27.90;6.65;;;4.30;99.90;;;;;;5136754;27;19940;-79
2022/12/27 09:51:44;;;;;;;21.48;6.03;;;4.30;99.90;;;;;;5136139;27;20040;-79
2022/12/27 09:54:14;;;;;;;27.17;6.85;;;4.30;99.90;;;;;;5134567;27;20059;-81
2022/12/27 09:56:40;;;;;;;30.08;7.28;;;4.40;99.90;;;;;;5135860;27;20358;-81
2022/12/27 09:59:21;;;;;;;29.05;6.20;;;4.50;99.90;;;;;;5117072;27;20062;-80
2022/12/27 10:01:47;;;;;;;27.73;6.20;;;4.50;99.90;;;;;;5136159;27;20047;-80
2022/12/27 10:04:16;;;;;;;38.72;8.27;;;4.50;99.90;;;;;;5117086;27;20483;-77
2022/12/27 10:06:48;;;;;;;25.80;5.78;;;4.60;99.90;;;;;;5117354;27;20075;-79
2022/12/27 10:09:26;;;;;;;33.03;6.10;;;4.60;99.90;;;;;;5100806;27;20057;-81
2022/12/27 10:12:00;;;;;;;23.80;5.55;;;4.80;99.90;;;;;;5136066;27;20065;-79
2022/12/27 10:14:34;;;;;;;30.77;6.13;;;4.90;99.90;;;;;;5135257;27;20063;-77
2022/12/27 10:17:20;;;;;;;29.45;5.55;;;4.90;99.90;;;;;;5134932;27;20043;-78
2022/12/27 10:20:18;;;;;;;24.85;4.82;;;4.90;99.90;;;;;;5117127;27;20086;-78
2022/12/27 10:23:08;;;;;;;30.58;6.03;;;5.00;99.90;;;;;;5116808;27;20126;-80
2022/12/27 10:25:36;;;;;;;29.20;5.68;;;5.00;99.90;;;;;;5116977;27;20047;-78
2022/12/27 10:28:16;;;;;;;33.17;5.43;;;5.20;99.90;;;;;;5098088;27;20073;-76
2022/12/27 10:30:43;;;;;;;28.17;4.40;;;5.20;99.90;;;;;;5117635;27;20374;-77
2022/12/27 10:33:28;;;;;;;21.38;4.38;;;5.00;99.90;;;;;;5134596;27;20047;-79
2022/12/27 10:35:54;;;;;;;22.30;4.97;;;5.30;99.90;;;;;;5135568;27;20043;-82
2022/12/27 10:38:20;;;;;;;16.85;4.25;;;5.50;99.90;;;;;;5116219;27;20125;-81
2022/12/27 10:41:16;;;;;;;27.65;4.60;;;5.10;99.90;;;;;;5099623;27;20043;-81
2022/12/27 10:43:44;;;;;;;21.75;4.05;;;5.20;99.90;;;;;;5134979;27;20141;-80
2022/12/27 10:46:18;;;;;;;24.63;4.13;;;5.20;99.90;;;;;;5134685;27;20051;-76
2022/12/27 10:49:05;;;;;;;37.70;5.88;;;5.30;99.90;;;;;;5061095;27;20407;-80
2022/12/27 10:51:39;;;;;;;24.58;4.18;;;5.60;99.90;;;;;;5057254;28;20052;-81
2022/12/27 10:54:12;;;;;;;22.48;3.80;;;5.30;99.90;;;;;;5047514;28;20196;-78
2022/12/27 10:56:40;;;;;;;20.10;4.30;;;5.30;99.90;;;;;;5047504;28;20045;-75
2022/12/27 10:59:10;;;;;;;29.58;4.30;;;5.20;99.90;;;;;;5031073;28;20057;-78
2022/12/27 11:01:35;;;;;;;28.15;3.70;;;5.20;99.90;;;;;;5049057;28;20045;-81
2022/12/27 11:04:19;;;;;;;26.27;4.30;;;5.20;99.90;;;;;;5048281;28;20037;-79
2022/12/27 11:07:07;;;;;;;23.95;3.90;;;5.40;99.90;;;;;;5048130;28;20041;-76
2022/12/27 11:09:35;;;;;;;23.05;4.55;;;5.50;99.90;;;;;;5047627;28;20137;-79
2022/12/27 11:12:13;;;;;;;28.13;3.65;;;5.60;99.90;;;;;;5032135;28;20132;-77
2022/12/27 11:14:52;;;;;;;23.58;3.60;;;5.60;99.90;;;;;;5049453;28;20444;-77
2022/12/27 11:17:22;;;;;;;23.35;4.57;;;5.70;99.90;;;;;;5049323;28;20103;-81
2022/12/27 11:19:48;;;;;;;19.23;4.45;;;5.70;99.90;;;;;;5047944;28;20524;-78
2022/12/27 11:22:14;;;;;;;26.83;4.30;;;5.70;99.90;;;;;;5055148;28;20044;-76
2022/12/27 11:24:49;;;;;;;28.20;4.88;;;5.70;99.90;;;;;;5015395;28;20615;-80
2022/12/27 11:27:27;;;;;;;25.20;3.92;;;5.70;99.90;;;;;;5068115;28;20075;-78
2022/12/27 11:29:57;;;;;;;25.15;4.35;;;5.70;99.90;;;;;;5067947;28;20052;-75
2022/12/27 11:32:23;;;;;;;22.55;4.97;;;5.70;99.90;;;;;;5066313;28;20041;-81
2022/12/27 11:34:54;;;;;;;27.23;5.00;;;5.70;99.90;;;;;;5083551;28;20040;-75
2022/12/27 11:37:24;;;;;;;20.05;5.90;;;5.70;99.90;;;;;;5084438;28;20044;-74
2022/12/27 11:39:53;;;;;;;26.33;6.35;;;5.70;99.90;;;;;;5068073;28;20048;-74
2022/12/27 11:42:37;;;;;;;27.80;6.05;;;5.60;99.90;;;;;;5066723;28;20111;-80
2022/12/27 11:45:18;;;;;;;30.35;5.50;;;5.60;99.90;;;;;;5068907;28;20122;-74
2022/12/27 11:47:50;;;;;;;31.38;5.78;;;5.60;99.90;;;;;;5068287;28;20166;-76
2022/12/27 11:50:46;;;;;;;33.17;5.80;;;5.60;99.90;;;;;;5069190;28;20465;-76
2022/12/27 11:53:27;;;;;;;31.02;5.97;;;5.60;99.90;;;;;;5067905;28;20052;-77
2022/12/27 11:56:25;;;;;;;26.48;6.07;;;5.70;99.90;;;;;;5066062;28;20052;-75
2022/12/27 11:59:06;;;;;;;24.95;5.40;;;5.60;99.90;;;;;;5061298;28;20056;-76
2022/12/27 12:01:41;;;;;;;37.75;6.60;;;5.70;99.90;;;;;;5052774;28;20056;-76
2022/12/27 12:04:41;;;;;;;31.17;6.60;;;5.70;99.90;;;;;;5054150;28;20049;-77
2022/12/27 12:07:35;;;;;;;25.48;6.18;;;5.80;99.90;;;;;;5054817;28;20040;-79
2022/12/27 12:10:49;;;;;;;29.95;7.07;;;5.70;99.90;;;;;;5054061;28;20053;-79
2022/12/27 12:13:17;;;;;;;26.02;6.95;;;5.80;99.90;;;;;;5080794;28;20052;-76
2022/12/27 12:15:58;;;;;;;32.83;6.85;;;5.80;99.90;;;;;;5034390;28;20046;-78
2022/12/27 12:18:44;;;;;;;29.50;8.10;;;5.70;99.90;;;;;;5022862;28;20120;-76
2022/12/27 12:21:47;;;;;;;34.13;7.95;;;5.70;99.90;;;;;;5053161;28;20057;-76
2022/12/27 12:24:35;;;;;;;34.53;8.55;;;5.70;99.90;;;;;;5053839;28;20045;-78
2022/12/27 12:27:26;;;;;;;32.88;8.85;;;5.70;99.90;;;;;;5037209;28;20041;-77
2022/12/27 12:30:18;;;;;;;35.22;9.70;;;5.70;99.90;;;;;;5053927;28;20056;-77
2022/12/27 12:33:14;;;;;;;33.38;10.10;;;5.60;99.90;;;;;;5052846;28;20045;-76
2022/12/27 12:35:58;;;;;;;27.90;10.52;;;5.60;99.90;;;;;;5052576;28;20045;-77
2022/12/27 12:38:51;;;;;;;31.20;9.70;;;5.60;99.90;;;;;;5087128;28;20045;-75
2022/12/27 12:41:43;;;;;;;28.10;10.15;;;5.60;99.90;;;;;;5053166;28;20056;-79
2022/12/27 12:44:20;;;;;;;37.63;11.35;;;5.50;99.90;;;;;;5087070;28;20464;-77
2022/12/27 12:47:31;;;;;;;38.03;12.35;;;5.60;99.90;;;;;;5051343;28;20053;-76
2022/12/27 12:50:06;;;;;;;36.78;11.18;;;5.50;99.90;;;;;;5037403;28;20186;-76
2022/12/27 12:52:37;;;;;;;45.20;13.57;;;5.60;99.90;;;;;;5054426;28;20128;-78
2022/12/27 12:55:39;;;;;;;41.75;13.63;;;5.70;99.90;;;;;;5052974;28;20049;-76
2022/12/27 12:58:15;;;;;;;44.28;15.85;;;5.70;99.90;;;;;;5053505;28;20044;-76
2022/12/27 13:01:28;;;;;;;48.37;15.77;;;5.80;99.90;;;;;;5055122;28;20091;-76
2022/12/27 13:04:29;;;;;;;59.88;18.48;;;5.80;99.90;;;;;;5050153;28;20299;-77
2022/12/27 13:07:00;;;;;;;46.03;16.77;;;5.90;99.90;;;;;;5032689;28;20076;-76
2022/12/27 13:09:41;;;;;;;61.45;20.05;;;5.90;99.90;;;;;;5054393;28;20048;-78
2022/12/27 13:12:30;;;;;;;47.58;16.98;;;5.90;99.90;;;;;;5085550;28;20044;-78
2022/12/27 13:15:15;;;;;;;63.17;18.85;;;5.90;99.90;;;;;;5054193;28;20048;-75
2022/12/27 13:18:06;;;;;;;58.60;19.33;;;5.90;99.90;;;;;;5052650;28;20503;-77
2022/12/27 13:20:44;;;;;;;57.60;18.58;;;5.90;99.90;;;;;;5053675;28;20048;-77
2022/12/27 13:23:30;;;;;;;58.10;19.00;;;5.80;99.90;;;;;;5040824;28;20462;-76
2022/12/27 13:25:59;;;;;;;56.25;19.83;;;5.90;99.90;;;;;;5031347;28;20116;-76
2022/12/27 13:28:35;;;;;;;60.10;19.15;;;5.90;99.90;;;;;;5049328;28;20417;-76
2022/12/27 13:31:13;;;;;;;62.10;20.42;;;5.80;99.90;;;;;;5077642;28;20053;-78
2022/12/27 13:34:00;;;;;;;48.42;19.45;;;5.90;99.90;;;;;;5051472;28;20055;-81
2022/12/27 13:36:45;;;;;;;57.17;19.33;;;5.90;99.90;;;;;;5052637;28;20049;-76
2022/12/27 13:39:31;;;;;;;62.33;19.13;;;5.80;99.90;;;;;;5051445;28;20049;-78
2022/12/27 13:42:33;;;;;;;68.28;20.35;;;6.00;99.90;;;;;;5051563;28;20059;-81
2022/12/27 13:45:29;;;;;;;56.03;19.05;;;5.90;99.90;;;;;;5034891;28;20485;-74
2022/12/27 13:48:00;;;;;;;49.30;17.52;;;5.90;99.90;;;;;;5051569;28;20053;-76
2022/12/27 13:51:01;;;;;;;52.53;19.08;;;5.90;99.90;;;;;;5085611;28;20040;-77
2022/12/27 13:53:42;;;;;;;56.63;17.70;;;5.90;99.90;;;;;;5028101;28;20053;-79
2022/12/27 13:56:33;;;;;;;57.95;19.88;;;5.90;99.90;;;;;;5051694;28;20131;-77
2022/12/27 13:59:37;;;;;;;58.53;19.05;;;5.90;99.90;;;;;;5051082;28;20052;-78
2022/12/27 14:02:28;;;;;;;50.42;18.15;;;5.90;99.90;;;;;;5050777;28;20136;-77
2022/12/27 14:05:08;;;;;;;55.67;19.92;;;5.90;99.90;;;;;;5052460;28;20044;-76
2022/12/27 14:07:49;;;;;;;54.83;19.20;;;5.90;99.90;;;;;;5054656;28;20048;-77
2022/12/27 14:10:40;;;;;;;58.08;18.13;;;5.90;99.90;;;;;;5054045;28;20049;-79
2022/12/27 14:13:15;;;;;;;49.95;18.75;;;5.90;99.90;;;;;;5045077;28;20508;-80
2022/12/27 14:15:57;;;;;;;50.00;16.65;;;5.80;99.90;;;;;;5036236;28;20115;-77
2022/12/27 14:18:34;;;;;;;50.97;18.52;;;5.80;99.90;;;;;;5050886;28;20119;-75
2022/12/27 14:21:07;;;;;;;58.17;18.73;;;5.80;99.90;;;;;;5034703;28;20044;-76
2022/12/27 14:23:55;;;;;;;65.90;21.02;;;5.80;99.90;;;;;;5053076;28;20064;-79
2022/12/27 14:26:32;;;;;;;59.03;19.15;;;5.70;99.90;;;;;;5053340;28;20175;-76
2022/12/27 14:29:36;;;;;;;56.83;19.33;;;5.70;99.90;;;;;;5034933;28;20409;-76
2022/12/27 14:32:41;;;;;;;60.40;19.02;;;5.60;99.90;;;;;;5045903;28;20409;-76
2022/12/27 14:35:26;;;;;;;53.78;19.10;;;5.60;99.90;;;;;;5052093;28;20494;-77
2022/12/27 14:38:18;;;;;;;49.65;17.50;;;5.60;99.90;;;;;;5052125;28;20068;-76
2022/12/27 14:41:09;;;;;;;51.78;17.52;;;5.60;99.90;;;;;;5051771;28;20084;-75
2022/12/27 14:43:54;;;;;;;53.42;18.95;;;5.60;99.90;;;;;;5051713;28;20041;-77
2022/12/27 14:46:53;;;;;;;70.57;20.08;;;5.60;99.90;;;;;;5034402;28;20485;-77
2022/12/27 14:49:56;;;;;;;56.20;19.58;;;5.60;99.90;;;;;;5051183;28;20052;-78
2022/12/27 14:52:36;;;;;;;62.17;18.25;;;5.50;99.90;;;;;;5052123;28;20049;-78
2022/12/27 14:55:14;;;;;;;56.63;17.42;;;5.40;99.90;;;;;;5050242;28;20135;-76
2022/12/27 14:58:01;;;;;;;56.08;18.10;;;5.50;99.90;;;;;;5034645;28;20095;-77
2022/12/27 15:00:33;;;;;;;57.53;17.20;;;5.50;99.90;;;;;;5050800;28;20045;-77
2022/12/27 15:03:53;;;;;;;50.55;16.60;;;5.40;99.90;;;;;;5050732;28;20048;-78